Time;durP1;ratioP1;P1;durP2;ratioP2;P2;SDS_P1;SDS_P2;PMS_P1;PMS_P2;Temp;Humidity;BMP_temperature;BMP_pressure;BME280_temperature;BME280_humidity;BME280_pressure;Samples;Min_cycle;Max_cycle;Signal;HPM_P1;HPM_P2
2021/06/22 00:00:10;;;;;;;25.77;6.63;;;;;;;;;;5127845;27;20549;-75
2021/06/22 00:02:36;;;;;;;14.80;6.05;;;;;;;;;;5120076;27;20114;-75
2021/06/22 00:05:03;;;;;;;18.15;6.25;;;;;;;;;;5112854;28;20023;-76
2021/06/22 00:07:28;;;;;;;16.23;5.93;;;;;;;;;;5130346;27;20031;-76
2021/06/22 00:09:54;;;;;;;14.55;6.15;;;;;;;;;;5119045;27;20280;-76
2021/06/22 00:12:20;;;;;;;17.13;6.28;;;;;;;;;;5115846;27;20040;-75
2021/06/22 00:14:46;;;;;;;16.70;5.88;;;;;;;;;;5125636;27;20424;-75
2021/06/22 00:17:12;;;;;;;19.83;6.53;;;;;;;;;;5119178;27;20027;-76
2021/06/22 00:19:38;;;;;;;20.38;6.95;;;;;;;;;;5111149;27;20024;-76
2021/06/22 00:22:04;;;;;;;24.35;7.60;;;;;;;;;;5120192;27;20042;-76
2021/06/22 00:24:30;;;;;;;18.95;6.43;;;;;;;;;;5115076;27;20088;-76
2021/06/22 00:26:56;;;;;;;20.05;7.45;;;;;;;;;;5108745;28;20023;-75
2021/06/22 00:29:24;;;;;;;16.75;5.82;;;;;;;;;;5112753;27;20546;-76
2021/06/22 00:31:50;;;;;;;17.88;6.47;;;;;;;;;;5124989;27;20054;-76
2021/06/22 00:34:16;;;;;;;13.17;6.47;;;;;;;;;;5105802;27;20470;-76
2021/06/22 00:36:42;;;;;;;17.67;7.50;;;;;;;;;;5095625;28;20423;-76
2021/06/22 00:39:08;;;;;;;19.23;6.93;;;;;;;;;;5113696;27;20059;-75
2021/06/22 00:41:34;;;;;;;26.02;7.40;;;;;;;;;;5123002;27;20065;-75
2021/06/22 00:44:07;;;;;;;18.85;6.60;;;;;;;;;;5125428;27;20143;-77
2021/06/22 00:46:33;;;;;;;19.30;6.80;;;;;;;;;;5127691;27;20019;-75
2021/06/22 00:48:59;;;;;;;20.13;7.10;;;;;;;;;;5121684;27;20495;-76
2021/06/22 00:51:26;;;;;;;25.60;7.13;;;;;;;;;;5132102;27;20023;-76
2021/06/22 00:53:52;;;;;;;16.77;7.40;;;;;;;;;;5086734;28;20043;-75
2021/06/22 00:56:18;;;;;;;22.10;6.63;;;;;;;;;;5091044;28;20039;-76
2021/06/22 00:58:44;;;;;;;20.83;7.10;;;;;;;;;;5090727;28;20020;-76
2021/06/22 01:01:10;;;;;;;22.13;7.00;;;;;;;;;;5090278;28;20040;-75
2021/06/22 01:03:36;;;;;;;25.35;7.07;;;;;;;;;;5090799;28;20093;-76
2021/06/22 01:06:02;;;;;;;21.40;6.60;;;;;;;;;;5089864;28;20027;-76
2021/06/22 01:08:28;;;;;;;22.52;7.65;;;;;;;;;;5090653;28;20024;-75
2021/06/22 01:10:54;;;;;;;21.83;7.30;;;;;;;;;;5091194;28;20094;-75
2021/06/22 01:13:20;;;;;;;25.15;7.72;;;;;;;;;;5089863;28;20076;-76
2021/06/22 01:15:46;;;;;;;22.48;7.40;;;;;;;;;;5090605;28;20048;-76
2021/06/22 01:18:12;;;;;;;24.45;6.88;;;;;;;;;;5090671;28;20031;-76
2021/06/22 01:20:38;;;;;;;22.20;7.30;;;;;;;;;;5090841;28;20024;-76
2021/06/22 01:23:06;;;;;;;22.42;7.80;;;;;;;;;;5090440;28;20016;-76
2021/06/22 01:25:33;;;;;;;23.77;7.97;;;;;;;;;;5089995;28;20028;-75
2021/06/22 01:27:59;;;;;;;23.13;7.32;;;;;;;;;;5090519;28;20024;-75
2021/06/22 01:30:26;;;;;;;23.47;7.70;;;;;;;;;;5090271;28;20027;-76
2021/06/22 01:32:52;;;;;;;24.52;9.10;;;;;;;;;;5090566;28;20280;-76
2021/06/22 01:35:18;;;;;;;23.30;8.40;;;;;;;;;;5090335;28;20082;-74
2021/06/22 01:37:52;;;;;;;19.30;8.98;;;;;;;;;;5089675;28;20016;-73
2021/06/22 01:40:18;;;;;;;23.08;8.10;;;;;;;;;;5089826;28;20035;-75
2021/06/22 01:42:44;;;;;;;22.65;7.90;;;;;;;;;;5090301;28;20012;-74
2021/06/22 01:45:10;;;;;;;18.75;8.25;;;;;;;;;;5089868;28;20671;-73
2021/06/22 01:47:36;;;;;;;22.52;7.82;;;;;;;;;;5090287;28;20051;-74
2021/06/22 01:50:03;;;;;;;20.63;9.02;;;;;;;;;;5090142;28;20090;-74
2021/06/22 01:52:29;;;;;;;29.67;9.07;;;;;;;;;;5098485;27;20043;-74
2021/06/22 01:54:59;;;;;;;23.63;9.57;;;;;;;;;;5116101;27;20505;-76
2021/06/22 01:57:25;;;;;;;30.15;11.02;;;;;;;;;;5121581;27;20126;-77
2021/06/22 01:59:52;;;;;;;28.83;10.43;;;;;;;;;;5129358;27;20027;-76
2021/06/22 02:02:18;;;;;;;26.15;10.77;;;;;;;;;;5114964;27;20023;-76
2021/06/22 02:04:45;;;;;;;20.00;9.88;;;;;;;;;;5104324;28;20132;-76
2021/06/22 02:07:11;;;;;;;24.52;10.13;;;;;;;;;;5099091;28;20040;-77
2021/06/22 02:09:37;;;;;;;25.85;11.63;;;;;;;;;;5122746;27;20426;-76
2021/06/22 02:12:04;;;;;;;23.08;9.82;;;;;;;;;;5092401;28;20058;-76
2021/06/22 02:14:30;;;;;;;34.95;9.32;;;;;;;;;;5111475;28;20063;-76
2021/06/22 02:16:56;;;;;;;26.58;9.80;;;;;;;;;;5116756;28;20504;-77
2021/06/22 02:19:22;;;;;;;22.63;9.50;;;;;;;;;;5110758;28;20103;-76
2021/06/22 02:21:48;;;;;;;28.98;9.30;;;;;;;;;;5119067;28;20035;-76
2021/06/22 02:24:14;;;;;;;24.90;9.57;;;;;;;;;;5119917;27;20326;-76
2021/06/22 02:26:40;;;;;;;29.27;11.05;;;;;;;;;;5134181;27;20057;-77
2021/06/22 02:29:06;;;;;;;34.10;10.57;;;;;;;;;;5126274;27;20055;-76
2021/06/22 02:31:32;;;;;;;30.05;10.18;;;;;;;;;;5110756;28;20020;-77
2021/06/22 02:33:58;;;;;;;26.08;9.55;;;;;;;;;;5124045;27;20030;-76
2021/06/22 02:36:26;;;;;;;22.88;9.43;;;;;;;;;;5114585;27;20047;-77
2021/06/22 02:38:52;;;;;;;21.90;9.32;;;;;;;;;;5125286;27;20040;-76
2021/06/22 02:41:18;;;;;;;20.75;9.63;;;;;;;;;;5125774;27;20485;-75
2021/06/22 02:43:44;;;;;;;22.02;9.63;;;;;;;;;;5125985;27;20019;-77
2021/06/22 02:46:10;;;;;;;24.38;9.85;;;;;;;;;;5122278;27;20023;-76
2021/06/22 02:48:36;;;;;;;28.70;11.20;;;;;;;;;;5107521;28;20047;-77
2021/06/22 02:51:03;;;;;;;28.55;8.25;;;;;;;;;;5121553;27;20023;-77
2021/06/22 02:53:30;;;;;;;28.27;9.38;;;;;;;;;;5121538;27;20082;-77
2021/06/22 02:55:56;;;;;;;31.30;9.52;;;;;;;;;;5123490;27;20039;-76
2021/06/22 02:58:22;;;;;;;36.97;9.20;;;;;;;;;;5122108;27;20073;-76
2021/06/22 03:00:48;;;;;;;26.42;9.27;;;;;;;;;;5116363;27;20460;-77
2021/06/22 03:03:14;;;;;;;27.70;9.30;;;;;;;;;;5116811;27;20020;-77
2021/06/22 03:05:40;;;;;;;28.38;9.10;;;;;;;;;;5127920;27;20107;-76
2021/06/22 03:08:06;;;;;;;23.67;8.90;;;;;;;;;;5114058;28;20028;-77
2021/06/22 03:10:32;;;;;;;23.75;9.38;;;;;;;;;;5113747;27;20481;-77
2021/06/22 03:12:58;;;;;;;24.98;8.57;;;;;;;;;;5120196;27;20114;-74
2021/06/22 03:15:24;;;;;;;26.75;8.85;;;;;;;;;;5104578;28;20035;-77
2021/06/22 03:17:50;;;;;;;25.40;9.45;;;;;;;;;;5130513;27;20038;-75
2021/06/22 03:20:16;;;;;;;22.38;9.65;;;;;;;;;;5123799;27;20035;-76
2021/06/22 03:22:42;;;;;;;21.95;9.40;;;;;;;;;;5116697;27;20023;-76
2021/06/22 03:25:10;;;;;;;29.20;9.65;;;;;;;;;;5116660;27;20361;-75
2021/06/22 03:27:36;;;;;;;33.33;10.10;;;;;;;;;;5119245;27;20034;-75
2021/06/22 03:30:04;;;;;;;25.13;11.43;;;;;;;;;;5113529;28;20457;-76
2021/06/22 03:32:30;;;;;;;26.33;10.88;;;;;;;;;;5117354;27;20057;-76
2021/06/22 03:34:56;;;;;;;26.65;11.48;;;;;;;;;;5119216;27;20307;-76
2021/06/22 03:37:22;;;;;;;28.50;10.85;;;;;;;;;;5122632;27;20039;-76
2021/06/22 03:39:48;;;;;;;27.63;11.50;;;;;;;;;;5119987;27;20392;-76
2021/06/22 03:42:14;;;;;;;28.05;11.50;;;;;;;;;;5120712;27;20039;-76
2021/06/22 03:44:41;;;;;;;34.20;10.95;;;;;;;;;;5116997;27;20101;-76
2021/06/22 03:47:06;;;;;;;28.23;11.80;;;;;;;;;;5121393;27;20023;-77
2021/06/22 03:49:33;;;;;;;33.53;12.27;;;;;;;;;;5122562;27;20533;-76
2021/06/22 03:51:59;;;;;;;23.10;10.70;;;;;;;;;;5114194;27;20427;-76
2021/06/22 03:54:25;;;;;;;23.55;10.73;;;;;;;;;;5114202;27;20027;-76
2021/06/22 03:56:51;;;;;;;25.25;11.07;;;;;;;;;;5128295;27;20073;-76
2021/06/22 03:59:17;;;;;;;25.27;11.07;;;;;;;;;;5132260;27;20030;-77
2021/06/22 04:01:43;;;;;;;25.52;9.85;;;;;;;;;;5120781;27;20027;-76
2021/06/22 04:04:09;;;;;;;31.35;9.20;;;;;;;;;;5116493;27;20077;-75
2021/06/22 04:06:35;;;;;;;32.65;10.40;;;;;;;;;;5114067;27;20032;-77
2021/06/22 04:09:01;;;;;;;28.73;11.15;;;;;;;;;;5117695;27;20106;-77
2021/06/22 04:11:28;;;;;;;33.45;12.10;;;;;;;;;;5124353;27;20035;-76
2021/06/22 04:13:54;;;;;;;33.20;12.90;;;;;;;;;;5107081;27;20342;-77
2021/06/22 04:16:20;;;;;;;28.90;10.23;;;;;;;;;;5124150;27;20035;-76
2021/06/22 04:18:47;;;;;;;28.65;10.98;;;;;;;;;;5118250;27;20080;-77
2021/06/22 04:21:13;;;;;;;28.35;10.68;;;;;;;;;;5117199;27;20031;-77
2021/06/22 04:23:39;;;;;;;30.98;11.13;;;;;;;;;;5121371;27;20039;-76
2021/06/22 04:26:05;;;;;;;27.42;10.68;;;;;;;;;;5118702;27;20032;-76
2021/06/22 04:28:31;;;;;;;22.88;10.30;;;;;;;;;;5113393;27;20043;-76
2021/06/22 04:30:57;;;;;;;34.90;11.05;;;;;;;;;;5125167;27;20066;-76
2021/06/22 04:33:24;;;;;;;34.17;11.88;;;;;;;;;;5098636;28;20020;-77
2021/06/22 04:35:50;;;;;;;31.00;13.70;;;;;;;;;;5122205;27;20095;-76
2021/06/22 04:38:16;;;;;;;22.33;9.77;;;;;;;;;;5129085;27;20102;-76
2021/06/22 04:40:42;;;;;;;44.03;12.15;;;;;;;;;;5114424;27;20027;-76
2021/06/22 04:43:08;;;;;;;33.40;9.70;;;;;;;;;;5130722;27;20450;-76
2021/06/22 04:45:35;;;;;;;19.48;9.07;;;;;;;;;;5117407;27;20039;-76
2021/06/22 04:48:01;;;;;;;20.60;10.93;;;;;;;;;;5116043;27;20096;-76
2021/06/22 04:50:27;;;;;;;22.65;9.43;;;;;;;;;;5124744;27;20020;-77
2021/06/22 04:52:53;;;;;;;21.85;10.32;;;;;;;;;;5121127;27;20043;-77
2021/06/22 04:55:25;;;;;;;24.40;10.13;;;;;;;;;;5117032;27;20039;-76
2021/06/22 04:57:51;;;;;;;32.13;10.70;;;;;;;;;;5129276;27;20104;-76
2021/06/22 05:00:17;;;;;;;25.48;10.15;;;;;;;;;;5112114;27;20024;-76
2021/06/22 05:02:44;;;;;;;35.03;10.77;;;;;;;;;;5113020;27;20114;-77
2021/06/22 05:05:11;;;;;;;22.00;10.13;;;;;;;;;;5122647;27;20019;-75
2021/06/22 05:07:37;;;;;;;21.85;9.48;;;;;;;;;;5132027;27;20020;-75
2021/06/22 05:10:03;;;;;;;22.52;8.73;;;;;;;;;;5127772;27;20042;-76
2021/06/22 05:12:29;;;;;;;28.42;9.93;;;;;;;;;;5118030;27;20836;-75
2021/06/22 05:14:55;;;;;;;28.55;9.77;;;;;;;;;;5120910;27;20066;-75
2021/06/22 05:17:21;;;;;;;23.23;9.80;;;;;;;;;;5111347;27;20067;-76
2021/06/22 05:19:47;;;;;;;31.80;10.18;;;;;;;;;;5102927;27;20484;-76
2021/06/22 05:22:13;;;;;;;33.70;10.43;;;;;;;;;;5121807;27;20084;-76
2021/06/22 05:24:40;;;;;;;26.67;9.63;;;;;;;;;;5111538;27;20610;-76
2021/06/22 05:27:06;;;;;;;21.20;9.40;;;;;;;;;;5111357;27;20032;-77
2021/06/22 05:29:32;;;;;;;30.77;9.70;;;;;;;;;;5112665;27;20444;-77
2021/06/22 05:31:58;;;;;;;26.27;9.55;;;;;;;;;;5122680;27;20102;-77
2021/06/22 05:34:24;;;;;;;29.30;10.55;;;;;;;;;;5124736;27;20084;-78
2021/06/22 05:36:50;;;;;;;30.23;9.95;;;;;;;;;;5113107;27;20055;-77
2021/06/22 05:39:16;;;;;;;22.50;9.73;;;;;;;;;;5111339;28;20085;-77
2021/06/22 05:41:42;;;;;;;33.15;10.32;;;;;;;;;;5112629;27;20024;-77
2021/06/22 05:44:08;;;;;;;22.35;8.77;;;;;;;;;;5106030;27;20500;-78
2021/06/22 05:46:34;;;;;;;21.40;8.27;;;;;;;;;;5113434;27;20359;-77
2021/06/22 05:49:00;;;;;;;22.95;8.40;;;;;;;;;;5127717;27;20072;-77
2021/06/22 05:51:26;;;;;;;23.47;7.53;;;;;;;;;;5118091;27;20039;-77
2021/06/22 05:53:52;;;;;;;22.40;8.40;;;;;;;;;;5110421;27;20107;-77
2021/06/22 05:56:19;;;;;;;23.43;8.00;;;;;;;;;;5117401;27;20165;-76
2021/06/22 05:58:45;;;;;;;23.98;8.00;;;;;;;;;;5113267;27;20054;-75
2021/06/22 06:01:11;;;;;;;30.35;8.13;;;;;;;;;;5123019;27;20031;-75
2021/06/22 06:03:37;;;;;;;23.58;7.85;;;;;;;;;;5119906;27;20030;-76
2021/06/22 06:06:03;;;;;;;32.47;8.85;;;;;;;;;;5103258;27;20024;-76
2021/06/22 06:08:29;;;;;;;20.43;8.60;;;;;;;;;;5096462;28;20032;-77
2021/06/22 06:10:55;;;;;;;31.87;9.03;;;;;;;;;;5111532;27;20084;-76
2021/06/22 06:13:29;;;;;;;17.67;8.30;;;;;;;;;;5110394;28;20028;-76
2021/06/22 06:15:55;;;;;;;26.13;8.40;;;;;;;;;;5121064;28;20462;-76
2021/06/22 06:18:21;;;;;;;27.35;8.95;;;;;;;;;;5129603;28;20023;-77
2021/06/22 06:20:47;;;;;;;24.33;8.82;;;;;;;;;;5115795;28;20036;-77
2021/06/22 06:23:13;;;;;;;26.67;7.72;;;;;;;;;;5114472;28;20023;-77
2021/06/22 06:25:39;;;;;;;28.15;8.93;;;;;;;;;;5097136;28;20496;-77
2021/06/22 06:28:13;;;;;;;26.25;8.68;;;;;;;;;;5119296;28;20028;-77
2021/06/22 06:30:40;;;;;;;21.15;7.85;;;;;;;;;;5109141;27;20123;-77
2021/06/22 06:33:06;;;;;;;25.77;8.38;;;;;;;;;;5115242;28;20416;-77
2021/06/22 06:35:32;;;;;;;23.15;8.35;;;;;;;;;;5114271;28;20072;-77
2021/06/22 06:37:58;;;;;;;32.00;10.27;;;;;;;;;;5121001;28;20449;-76
2021/06/22 06:40:24;;;;;;;31.15;8.65;;;;;;;;;;5122122;28;20047;-78
2021/06/22 06:42:50;;;;;;;28.25;8.98;;;;;;;;;;5124311;28;20032;-78
2021/06/22 06:45:17;;;;;;;24.73;8.60;;;;;;;;;;5109971;28;20054;-78
2021/06/22 06:47:43;;;;;;;23.20;8.38;;;;;;;;;;5128885;28;20023;-77
2021/06/22 06:50:09;;;;;;;25.70;9.07;;;;;;;;;;5121835;28;20318;-77
2021/06/22 06:52:35;;;;;;;22.45;8.85;;;;;;;;;;5123137;28;20039;-76
2021/06/22 06:55:01;;;;;;;32.78;10.20;;;;;;;;;;5114377;28;20035;-76
2021/06/22 06:57:27;;;;;;;31.20;9.35;;;;;;;;;;5118567;28;20024;-76
2021/06/22 06:59:53;;;;;;;33.30;9.63;;;;;;;;;;5110993;28;20389;-76
2021/06/22 07:02:19;;;;;;;27.90;8.85;;;;;;;;;;5117179;28;20043;-76
2021/06/22 07:04:45;;;;;;;25.33;8.10;;;;;;;;;;5115886;28;20031;-76
2021/06/22 07:07:11;;;;;;;27.33;7.88;;;;;;;;;;5130006;28;20023;-76
2021/06/22 07:09:37;;;;;;;28.45;8.90;;;;;;;;;;5116948;28;20401;-76
2021/06/22 07:12:04;;;;;;;24.13;7.57;;;;;;;;;;5129710;27;20080;-76
2021/06/22 07:14:30;;;;;;;16.98;6.47;;;;;;;;;;5115988;27;20028;-76
2021/06/22 07:16:56;;;;;;;24.08;7.35;;;;;;;;;;5114203;28;20047;-76
2021/06/22 07:19:22;;;;;;;34.10;7.93;;;;;;;;;;5113112;27;20429;-76
2021/06/22 07:21:48;;;;;;;26.88;7.88;;;;;;;;;;5116125;27;20039;-76
2021/06/22 07:24:14;;;;;;;24.20;6.95;;;;;;;;;;5114527;27;20039;-75
2021/06/22 07:26:40;;;;;;;19.10;6.95;;;;;;;;;;5114844;27;20024;-76
2021/06/22 07:29:06;;;;;;;26.75;7.03;;;;;;;;;;5118990;27;20032;-76
2021/06/22 07:31:36;;;;;;;26.33;7.53;;;;;;;;;;5113742;28;20169;-75
2021/06/22 07:34:02;;;;;;;25.55;7.75;;;;;;;;;;5123964;27;20042;-76
2021/06/22 07:36:28;;;;;;;18.60;6.85;;;;;;;;;;5121990;27;20046;-76
2021/06/22 07:38:54;;;;;;;24.80;8.38;;;;;;;;;;5124485;27;20140;-76
2021/06/22 07:41:20;;;;;;;31.92;8.02;;;;;;;;;;5124500;27;20039;-77
2021/06/22 07:43:46;;;;;;;23.58;7.78;;;;;;;;;;5116914;27;20445;-75
2021/06/22 07:46:12;;;;;;;29.08;7.80;;;;;;;;;;5120221;27;20093;-75
2021/06/22 07:48:38;;;;;;;23.73;6.65;;;;;;;;;;5113225;27;20381;-74
2021/06/22 07:51:04;;;;;;;21.95;6.82;;;;;;;;;;5121941;27;20035;-76
2021/06/22 07:53:30;;;;;;;17.55;5.85;;;;;;;;;;5111620;27;20419;-77
2021/06/22 07:55:56;;;;;;;23.48;6.78;;;;;;;;;;5119467;27;20389;-77
2021/06/22 07:58:23;;;;;;;23.20;6.55;;;;;;;;;;5118944;27;21109;-79
2021/06/22 08:00:49;;;;;;;22.07;6.20;;;;;;;;;;5116805;27;20035;-78
2021/06/22 08:03:15;;;;;;;16.95;6.40;;;;;;;;;;5126563;27;20027;-78
2021/06/22 08:05:42;;;;;;;24.83;6.80;;;;;;;;;;5116415;27;20038;-78
2021/06/22 08:08:08;;;;;;;21.80;5.80;;;;;;;;;;5124556;27;20522;-78
2021/06/22 08:10:35;;;;;;;21.25;6.05;;;;;;;;;;5121455;27;20098;-75
2021/06/22 08:13:01;;;;;;;18.98;6.00;;;;;;;;;;5115497;27;20049;-75
2021/06/22 08:15:28;;;;;;;16.60;5.78;;;;;;;;;;5119987;27;20050;-75
2021/06/22 08:17:54;;;;;;;19.70;6.00;;;;;;;;;;5115394;27;20088;-76
2021/06/22 08:20:21;;;;;;;16.92;6.10;;;;;;;;;;5115986;27;20020;-75
2021/06/22 08:22:52;;;;;;;17.05;6.25;;;;;;;;;;5129803;27;20030;-76
2021/06/22 08:25:18;;;;;;;19.52;6.50;;;;;;;;;;5131868;27;20062;-76
2021/06/22 08:27:44;;;;;;;17.00;6.05;;;;;;;;;;5113495;27;20027;-76
2021/06/22 08:30:11;;;;;;;18.23;6.07;;;;;;;;;;5117920;27;20474;-75
2021/06/22 08:32:37;;;;;;;24.63;7.20;;;;;;;;;;5128172;27;20272;-75
2021/06/22 08:35:03;;;;;;;18.13;6.13;;;;;;;;;;5112417;27;20039;-74
2021/06/22 08:37:29;;;;;;;20.98;7.35;;;;;;;;;;5118611;27;20076;-74
2021/06/22 08:39:55;;;;;;;18.08;7.18;;;;;;;;;;5112654;27;20047;-74
2021/06/22 08:42:23;;;;;;;21.58;6.43;;;;;;;;;;5111736;27;20027;-74
2021/06/22 08:44:49;;;;;;;20.00;7.03;;;;;;;;;;5128444;27;20111;-74
2021/06/22 08:47:20;;;;;;;16.30;6.57;;;;;;;;;;5113556;27;20039;-75
2021/06/22 08:49:46;;;;;;;17.20;6.68;;;;;;;;;;5123725;27;20047;-74
2021/06/22 08:52:14;;;;;;;16.77;6.32;;;;;;;;;;5116538;27;20110;-73
2021/06/22 08:54:40;;;;;;;;;;;;;;;;;;5123704;27;20454;-75
2021/06/22 08:57:06;;;;;;;24.20;6.63;;;;;;;;;;5122756;27;19964;-75
2021/06/22 08:59:32;;;;;;;22.73;6.73;;;;;;;;;;5125851;27;20027;-74
2021/06/22 09:01:58;;;;;;;25.20;7.22;;;;;;;;;;5111420;28;20039;-77
2021/06/22 09:04:24;;;;;;;21.85;6.97;;;;;;;;;;5111496;28;20072;-76
2021/06/22 09:06:50;;;;;;;21.38;7.20;;;;;;;;;;5117420;27;20138;-76
2021/06/22 09:09:16;;;;;;;20.10;6.28;;;;;;;;;;5128313;27;20362;-78
2021/06/22 09:11:42;;;;;;;25.63;7.35;;;;;;;;;;5122755;27;20023;-78
2021/06/22 09:14:09;;;;;;;31.98;7.57;;;;;;;;;;5125122;27;20019;-76
2021/06/22 09:16:37;;;;;;;20.35;6.65;;;;;;;;;;5122361;27;20057;-79
2021/06/22 09:19:07;;;;;;;19.20;6.63;;;;;;;;;;5119285;27;20035;-77
2021/06/22 09:21:43;;;;;;;20.02;6.15;;;;;;;;;;5125331;27;20538;-76
2021/06/22 09:24:17;;;;;;;19.23;6.53;;;;;;;;;;5115952;27;20031;-76
2021/06/22 09:26:45;;;;;;;27.30;6.95;;;;;;;;;;5115688;27;20034;-76
2021/06/22 09:29:12;;;;;;;20.60;6.25;;;;;;;;;;5113440;27;20130;-75
2021/06/22 09:31:47;;;;;;;20.15;6.15;;;;;;;;;;5091648;28;20100;-75
2021/06/22 09:34:13;;;;;;;24.83;6.38;;;;;;;;;;5114372;27;20026;-75
2021/06/22 09:36:39;;;;;;;21.47;6.07;;;;;;;;;;5115220;27;20399;-75
2021/06/22 09:39:07;;;;;;;20.25;6.00;;;;;;;;;;5110755;28;20100;-76
2021/06/22 09:41:37;;;;;;;23.35;6.70;;;;;;;;;;5113265;27;20046;-76
2021/06/22 09:44:10;;;;;;;17.60;6.38;;;;;;;;;;5125889;27;20098;-75
2021/06/22 09:47:15;;;;;;;22.98;6.22;;;;;;;;;;5124929;27;20027;-75
2021/06/22 09:49:41;;;;;;;29.02;6.50;;;;;;;;;;5008619;28;20030;-75
2021/06/22 09:52:08;;;;;;;16.77;6.13;;;;;;;;;;5011703;28;20444;-76
2021/06/22 09:54:35;;;;;;;22.42;7.05;;;;;;;;;;5059239;28;20044;-75
2021/06/22 09:57:01;;;;;;;;;;;;;;;;;;5125201;27;20035;-75
2021/06/22 09:59:29;;;;;;;26.42;7.10;;;;;;;;;;5122941;27;19907;-76
2021/06/22 10:02:08;;;;;;;18.20;6.22;;;;;;;;;;5109422;27;20046;-78
2021/06/22 10:04:34;;;;;;;23.65;7.10;;;;;;;;;;5123505;27;20076;-77
2021/06/22 10:07:01;;;;;;;19.55;6.50;;;;;;;;;;5114299;27;20019;-77
2021/06/22 10:09:34;;;;;;;22.85;6.20;;;;;;;;;;5109268;28;20019;-77
2021/06/22 10:12:01;;;;;;;19.20;6.07;;;;;;;;;;5125286;27;20485;-77
2021/06/22 10:14:35;;;;;;;21.45;6.47;;;;;;;;;;5112358;27;20088;-77
2021/06/22 10:17:02;;;;;;;17.88;6.50;;;;;;;;;;5094956;28;20046;-78
2021/06/22 10:19:29;;;;;;;28.80;7.63;;;;;;;;;;5119652;28;20032;-78
2021/06/22 10:21:55;;;;;;;16.35;6.18;;;;;;;;;;5129678;28;20500;-78
2021/06/22 10:24:22;;;;;;;21.35;6.60;;;;;;;;;;5120624;28;20031;-76
2021/06/22 10:26:48;;;;;;;20.15;7.32;;;;;;;;;;5119136;28;20115;-79
2021/06/22 10:29:22;;;;;;;23.00;6.85;;;;;;;;;;5107885;28;20535;-77
2021/06/22 10:31:48;;;;;;;23.63;6.68;;;;;;;;;;5112405;28;20611;-79
2021/06/22 10:34:14;;;;;;;;;;;;;;;;;;5130192;28;20109;-78
2021/06/22 10:36:55;;;;;;;17.80;6.18;;;;;;;;;;5109993;28;19923;-77
2021/06/22 10:39:42;;;;;;;24.00;6.47;;;;;;;;;;5115025;28;20023;-79
2021/06/22 10:42:09;;;;;;;20.20;6.70;;;;;;;;;;5109841;28;20378;-78
2021/06/22 10:44:36;;;;;;;24.17;8.27;;;;;;;;;;5125203;28;20028;-78
2021/06/22 10:47:02;;;;;;;;;;;;;;;;;;5125659;27;20023;-78
2021/06/22 10:49:28;;;;;;;19.08;6.60;;;;;;;;;;5123479;27;19907;-79
2021/06/22 10:51:54;;;;;;;23.90;7.10;;;;;;;;;;5113392;28;20361;-78
2021/06/22 10:54:39;;;;;;;18.63;7.57;;;;;;;;;;5128191;27;20051;-77
2021/06/22 10:57:05;;;;;;;26.48;7.72;;;;;;;;;;5133892;27;20027;-78
2021/06/22 10:59:31;;;;;;;24.27;6.40;;;;;;;;;;5124628;27;20023;-76
2021/06/22 11:01:57;;;;;;;20.00;6.27;;;;;;;;;;5114524;27;20020;-79
2021/06/22 11:04:24;;;;;;;21.92;6.15;;;;;;;;;;5113924;27;20489;-79
2021/06/22 11:07:08;;;;;;;24.83;6.45;;;;;;;;;;5130956;27;20023;-78
2021/06/22 11:09:35;;;;;;;23.30;6.68;;;;;;;;;;5120096;27;20023;-78
2021/06/22 11:12:19;;;;;;;21.73;6.53;;;;;;;;;;5122613;27;20465;-79
2021/06/22 11:15:14;;;;;;;28.83;7.40;;;;;;;;;;5121173;27;20035;-78
2021/06/22 11:17:43;;;;;;;19.40;6.28;;;;;;;;;;5099766;28;20036;-79
2021/06/22 11:20:14;;;;;;;17.52;6.85;;;;;;;;;;5095034;28;20427;-79
2021/06/22 11:22:58;;;;;;;20.83;6.30;;;;;;;;;;5128182;27;20051;-79
2021/06/22 11:25:25;;;;;;;25.48;7.15;;;;;;;;;;5113667;27;20031;-79
2021/06/22 11:28:05;;;;;;;16.63;5.97;;;;;;;;;;5118968;27;20110;-77
2021/06/22 11:30:48;;;;;;;20.23;6.60;;;;;;;;;;5113272;27;20027;-79
2021/06/22 11:33:29;;;;;;;18.00;6.22;;;;;;;;;;5113896;27;20651;-79
2021/06/22 11:36:14;;;;;;;25.23;6.38;;;;;;;;;;5131346;27;20070;-79
2021/06/22 11:38:40;;;;;;;20.50;6.57;;;;;;;;;;5112420;27;20031;-79
2021/06/22 11:41:14;;;;;;;21.65;7.03;;;;;;;;;;5121159;27;20367;-80
2021/06/22 11:43:58;;;;;;;19.13;6.20;;;;;;;;;;5120459;27;20024;-78
2021/06/22 11:46:31;;;;;;;17.55;6.53;;;;;;;;;;5112808;27;20032;-79
2021/06/22 11:49:00;;;;;;;19.52;6.22;;;;;;;;;;5094212;28;20039;-78
2021/06/22 11:52:01;;;;;;;25.23;6.22;;;;;;;;;;5123209;27;20327;-78
2021/06/22 11:54:46;;;;;;;19.67;6.10;;;;;;;;;;5122200;27;20038;-79
2021/06/22 11:57:22;;;;;;;22.08;6.35;;;;;;;;;;5120412;27;20051;-77
2021/06/22 11:59:48;;;;;;;24.33;6.13;;;;;;;;;;5118451;27;20095;-78
2021/06/22 12:02:16;;;;;;;18.55;5.85;;;;;;;;;;5128232;27;20020;-78
2021/06/22 12:04:43;;;;;;;21.77;6.38;;;;;;;;;;5120422;27;20020;-80
2021/06/22 12:07:08;;;;;;;;;;;;;;;;;;5120787;27;20075;-78
2021/06/22 12:09:35;;;;;;;18.00;6.20;;;;;;;;;;5112062;28;19947;-78
2021/06/22 12:12:02;;;;;;;20.52;5.85;;;;;;;;;;5112007;27;20042;-78
2021/06/22 12:14:28;;;;;;;20.70;6.28;;;;;;;;;;5128807;27;20071;-80
2021/06/22 12:16:56;;;;;;;27.02;6.07;;;;;;;;;;5124594;27;20051;-79
2021/06/22 12:19:22;;;;;;;19.40;6.55;;;;;;;;;;5115368;27;20019;-78
2021/06/22 12:21:53;;;;;;;18.67;5.45;;;;;;;;;;5127788;27;20032;-79
2021/06/22 12:24:20;;;;;;;16.60;6.07;;;;;;;;;;5119932;27;20035;-79
2021/06/22 12:26:49;;;;;;;18.95;5.65;;;;;;;;;;5115828;27;20019;-79
2021/06/22 12:29:30;;;;;;;15.70;5.70;;;;;;;;;;5116340;27;20046;-79
2021/06/22 12:31:57;;;;;;;27.77;6.65;;;;;;;;;;5111118;28;20032;-79
2021/06/22 12:34:24;;;;;;;18.58;5.85;;;;;;;;;;5101622;27;20330;-79
2021/06/22 12:36:50;;;;;;;19.88;5.40;;;;;;;;;;5112772;27;20039;-80
2021/06/22 12:39:16;;;;;;;20.60;5.55;;;;;;;;;;5112305;28;20071;-79
2021/06/22 12:41:43;;;;;;;17.55;5.28;;;;;;;;;;5120700;27;20023;-77
2021/06/22 12:44:09;;;;;;;14.60;4.97;;;;;;;;;;5132492;27;20431;-78
2021/06/22 12:46:39;;;;;;;19.52;5.80;;;;;;;;;;5122551;27;20023;-80
2021/06/22 12:49:10;;;;;;;17.70;5.28;;;;;;;;;;5113928;27;20039;-81
2021/06/22 12:51:40;;;;;;;17.83;5.45;;;;;;;;;;5119700;27;20055;-80
2021/06/22 12:54:07;;;;;;;19.40;5.18;;;;;;;;;;5119821;27;20046;-81
2021/06/22 12:56:46;;;;;;;18.45;4.78;;;;;;;;;;5121013;27;20035;-81
2021/06/22 12:59:12;;;;;;;22.27;5.57;;;;;;;;;;5118335;27;20515;-81
2021/06/22 13:01:39;;;;;;;11.18;4.80;;;;;;;;;;5113277;27;20036;-81
2021/06/22 13:04:09;;;;;;;15.15;5.30;;;;;;;;;;5119523;27;20408;-81
2021/06/22 13:06:36;;;;;;;13.60;5.32;;;;;;;;;;5126024;27;20377;-81
2021/06/22 13:09:07;;;;;;;13.38;4.95;;;;;;;;;;5125112;27;20031;-81
2021/06/22 13:11:35;;;;;;;18.27;5.68;;;;;;;;;;5115979;27;20027;-79
2021/06/22 13:14:06;;;;;;;15.80;5.10;;;;;;;;;;5109288;27;20042;-80
2021/06/22 13:16:32;;;;;;;14.10;4.63;;;;;;;;;;5116326;27;20031;-80
2021/06/22 13:18:58;;;;;;;;;;;;;;;;;;5121529;27;20626;-80
2021/06/22 13:21:25;;;;;;;13.23;4.50;;;;;;;;;;5118848;27;19919;-77
2021/06/22 13:23:51;;;;;;;11.75;4.40;;;;;;;;;;5118858;27;20028;-77
2021/06/22 13:26:17;;;;;;;11.52;4.68;;;;;;;;;;5110981;27;20396;-78
2021/06/22 13:28:54;;;;;;;12.73;4.40;;;;;;;;;;5111333;28;20019;-78
2021/06/22 13:31:20;;;;;;;14.73;4.78;;;;;;;;;;5105155;27;20686;-78
2021/06/22 13:33:46;;;;;;;13.95;4.57;;;;;;;;;;5122552;27;20012;-77
2021/06/22 13:36:19;;;;;;;15.00;4.78;;;;;;;;;;5120809;27;20104;-78
2021/06/22 13:39:00;;;;;;;10.95;4.63;;;;;;;;;;5116390;27;20023;-77
2021/06/22 13:41:26;;;;;;;13.48;4.72;;;;;;;;;;5110475;28;20035;-79
2021/06/22 13:43:52;;;;;;;15.45;4.80;;;;;;;;;;5117995;27;20076;-77
2021/06/22 13:46:25;;;;;;;11.40;4.05;;;;;;;;;;5111399;27;20422;-79
2021/06/22 13:48:52;;;;;;;9.10;3.90;;;;;;;;;;5111073;28;20020;-78
2021/06/22 13:51:24;;;;;;;15.00;4.38;;;;;;;;;;5119826;27;20521;-78
2021/06/22 13:53:50;;;;;;;22.75;4.40;;;;;;;;;;5125735;27;20046;-78
2021/06/22 13:56:18;;;;;;;13.20;4.18;;;;;;;;;;5121197;27;20078;-79
2021/06/22 13:58:45;;;;;;;11.25;4.15;;;;;;;;;;5117332;27;20354;-79
2021/06/22 14:01:12;;;;;;;9.52;4.40;;;;;;;;;;5110929;27;20039;-79
2021/06/22 14:03:38;;;;;;;11.60;4.05;;;;;;;;;;5122598;27;20069;-79
2021/06/22 14:06:05;;;;;;;10.70;4.25;;;;;;;;;;5130755;27;20106;-79
2021/06/22 14:08:32;;;;;;;13.55;4.68;;;;;;;;;;5121328;27;20039;-78
2021/06/22 14:10:58;;;;;;;12.40;4.05;;;;;;;;;;5097649;28;20552;-79
2021/06/22 14:13:27;;;;;;;12.48;3.72;;;;;;;;;;5109707;28;20040;-79
2021/06/22 14:15:53;;;;;;;9.60;4.00;;;;;;;;;;5091980;28;20087;-78
2021/06/22 14:18:20;;;;;;;13.38;4.32;;;;;;;;;;5123944;28;20027;-78
2021/06/22 14:20:46;;;;;;;11.98;4.03;;;;;;;;;;5130315;27;20034;-80
2021/06/22 14:23:12;;;;;;;;;;;;;;;;;;5098481;28;20088;-77
2021/06/22 14:25:39;;;;;;;12.07;3.97;;;;;;;;;;5113516;28;19927;-78
2021/06/22 14:28:06;;;;;;;12.13;3.75;;;;;;;;;;5115811;28;20032;-80
2021/06/22 14:30:32;;;;;;;14.43;3.97;;;;;;;;;;5126414;28;20038;-81
2021/06/22 14:32:59;;;;;;;15.65;3.83;;;;;;;;;;5117258;28;20024;-80